sensor_id;sensor_type;location;lat;lon;timestamp;temperature;humidity
18041;DHT22;9145;48.588;9.250;2022-09-02T00:01:32;16.90;99.90
18041;DHT22;9145;48.588;9.250;2022-09-02T00:04:01;17.00;99.90
18041;DHT22;9145;48.588;9.250;2022-09-02T00:06:30;16.80;99.90
18041;DHT22;9145;48.588;9.250;2022-09-02T00:08:59;16.80;99.90
18041;DHT22;9145;48.588;9.250;2022-09-02T00:11:29;16.70;99.90
18041;DHT22;9145;48.588;9.250;2022-09-02T00:13:56;16.70;99.90
18041;DHT22;9145;48.588;9.250;2022-09-02T00:16:24;16.80;99.90
18041;DHT22;9145;48.588;9.250;2022-09-02T00:18:51;16.80;99.90
18041;DHT22;9145;48.588;9.250;2022-09-02T00:21:19;16.80;99.90
18041;DHT22;9145;48.588;9.250;2022-09-02T00:23:47;16.80;99.90
18041;DHT22;9145;48.588;9.250;2022-09-02T00:26:16;16.70;99.90
18041;DHT22;9145;48.588;9.250;2022-09-02T00:28:43;16.70;99.90
18041;DHT22;9145;48.588;9.250;2022-09-02T00:31:11;16.70;99.90
18041;DHT22;9145;48.588;9.250;2022-09-02T00:33:38;16.80;99.90
18041;DHT22;9145;48.588;9.250;2022-09-02T00:36:06;16.80;99.90
18041;DHT22;9145;48.588;9.250;2022-09-02T00:38:34;16.70;99.90
18041;DHT22;9145;48.588;9.250;2022-09-02T00:41:04;16.60;99.90
18041;DHT22;9145;48.588;9.250;2022-09-02T00:43:42;16.50;99.90
18041;DHT22;9145;48.588;9.250;2022-09-02T00:46:11;16.50;99.90
18041;DHT22;9145;48.588;9.250;2022-09-02T00:48:42;16.50;99.90
18041;DHT22;9145;48.588;9.250;2022-09-02T00:51:11;16.40;99.90
18041;DHT22;9145;48.588;9.250;2022-09-02T00:53:40;16.30;99.90
18041;DHT22;9145;48.588;9.250;2022-09-02T00:56:11;16.30;99.90
18041;DHT22;9145;48.588;9.250;2022-09-02T00:58:41;16.20;99.90
18041;DHT22;9145;48.588;9.250;2022-09-02T01:01:09;16.10;99.90
18041;DHT22;9145;48.588;9.250;2022-09-02T01:03:37;16.00;99.90
18041;DHT22;9145;48.588;9.250;2022-09-02T01:06:05;15.90;99.90
18041;DHT22;9145;48.588;9.250;2022-09-02T01:08:34;15.90;99.90
18041;DHT22;9145;48.588;9.250;2022-09-02T01:11:02;15.90;99.90
18041;DHT22;9145;48.588;9.250;2022-09-02T01:13:34;15.80;99.90
18041;DHT22;9145;48.588;9.250;2022-09-02T01:16:08;15.80;99.90
18041;DHT22;9145;48.588;9.250;2022-09-02T01:18:36;15.70;99.90
18041;DHT22;9145;48.588;9.250;2022-09-02T01:21:03;15.60;99.90
18041;DHT22;9145;48.588;9.250;2022-09-02T01:23:32;15.50;99.90
18041;DHT22;9145;48.588;9.250;2022-09-02T01:26:00;15.40;99.90
18041;DHT22;9145;48.588;9.250;2022-09-02T01:28:27;15.40;99.90
18041;DHT22;9145;48.588;9.250;2022-09-02T01:30:54;15.30;99.90
18041;DHT22;9145;48.588;9.250;2022-09-02T01:33:22;15.30;99.90
18041;DHT22;9145;48.588;9.250;2022-09-02T01:35:49;15.30;99.90
18041;DHT22;9145;48.588;9.250;2022-09-02T01:38:16;15.30;99.90
18041;DHT22;9145;48.588;9.250;2022-09-02T01:40:45;15.30;99.90
18041;DHT22;9145;48.588;9.250;2022-09-02T01:43:14;15.20;99.90
18041;DHT22;9145;48.588;9.250;2022-09-02T01:45:43;15.20;99.90
18041;DHT22;9145;48.588;9.250;2022-09-02T01:48:11;15.20;99.90
18041;DHT22;9145;48.588;9.250;2022-09-02T01:50:41;15.20;99.90
18041;DHT22;9145;48.588;9.250;2022-09-02T01:53:08;15.30;99.90
18041;DHT22;9145;48.588;9.250;2022-09-02T01:55:35;15.20;99.90
18041;DHT22;9145;48.588;9.250;2022-09-02T01:58:04;15.30;99.90
18041;DHT22;9145;48.588;9.250;2022-09-02T02:00:31;15.30;99.90
18041;DHT22;9145;48.588;9.250;2022-09-02T02:02:58;15.10;99.90
18041;DHT22;9145;48.588;9.250;2022-09-02T02:05:24;15.20;99.90
18041;DHT22;9145;48.588;9.250;2022-09-02T02:07:51;15.10;99.90
18041;DHT22;9145;48.588;9.250;2022-09-02T02:10:20;15.10;99.90
18041;DHT22;9145;48.588;9.250;2022-09-02T02:12:47;15.10;99.90
18041;DHT22;9145;48.588;9.250;2022-09-02T02:15:17;15.10;99.90
18041;DHT22;9145;48.588;9.250;2022-09-02T02:17:44;15.20;99.90
18041;DHT22;9145;48.588;9.250;2022-09-02T02:20:12;15.10;99.90
18041;DHT22;9145;48.588;9.250;2022-09-02T02:22:41;15.10;99.90
18041;DHT22;9145;48.588;9.250;2022-09-02T02:25:09;15.10;99.90
18041;DHT22;9145;48.588;9.250;2022-09-02T02:27:36;15.10;99.90
18041;DHT22;9145;48.588;9.250;2022-09-02T02:30:04;15.10;99.90
18041;DHT22;9145;48.588;9.250;2022-09-02T02:32:32;15.10;99.90
18041;DHT22;9145;48.588;9.250;2022-09-02T02:35:00;15.10;99.90
18041;DHT22;9145;48.588;9.250;2022-09-02T02:37:27;15.10;99.90
18041;DHT22;9145;48.588;9.250;2022-09-02T02:39:54;15.00;99.90
18041;DHT22;9145;48.588;9.250;2022-09-02T02:42:22;15.00;99.90
18041;DHT22;9145;48.588;9.250;2022-09-02T02:44:48;15.00;99.90
18041;DHT22;9145;48.588;9.250;2022-09-02T02:47:15;14.90;99.90
18041;DHT22;9145;48.588;9.250;2022-09-02T02:49:43;15.00;99.90
18041;DHT22;9145;48.588;9.250;2022-09-02T02:52:11;14.80;99.90
18041;DHT22;9145;48.588;9.250;2022-09-02T02:54:40;14.80;99.90
18041;DHT22;9145;48.588;9.250;2022-09-02T02:57:08;14.80;99.90
18041;DHT22;9145;48.588;9.250;2022-09-02T02:59:35;14.70;99.90
18041;DHT22;9145;48.588;9.250;2022-09-02T03:02:03;14.70;99.90
18041;DHT22;9145;48.588;9.250;2022-09-02T03:04:30;14.70;99.90
18041;DHT22;9145;48.588;9.250;2022-09-02T03:06:59;14.60;99.90
18041;DHT22;9145;48.588;9.250;2022-09-02T03:09:27;14.60;99.90
18041;DHT22;9145;48.588;9.250;2022-09-02T03:11:54;14.40;99.90
18041;DHT22;9145;48.588;9.250;2022-09-02T03:14:21;14.40;99.90
18041;DHT22;9145;48.588;9.250;2022-09-02T03:16:48;14.30;99.90
18041;DHT22;9145;48.588;9.250;2022-09-02T03:19:15;14.30;99.90
18041;DHT22;9145;48.588;9.250;2022-09-02T03:21:42;14.30;99.90
18041;DHT22;9145;48.588;9.250;2022-09-02T03:24:11;14.30;99.90
18041;DHT22;9145;48.588;9.250;2022-09-02T03:26:39;14.40;99.90
18041;DHT22;9145;48.588;9.250;2022-09-02T03:29:07;14.30;99.90
18041;DHT22;9145;48.588;9.250;2022-09-02T03:31:34;14.30;99.90
18041;DHT22;9145;48.588;9.250;2022-09-02T03:34:01;14.30;99.90
18041;DHT22;9145;48.588;9.250;2022-09-02T03:36:30;14.30;99.90
18041;DHT22;9145;48.588;9.250;2022-09-02T03:38:58;14.30;99.90
18041;DHT22;9145;48.588;9.250;2022-09-02T03:41:27;14.30;99.90
18041;DHT22;9145;48.588;9.250;2022-09-02T03:43:53;14.40;99.90
18041;DHT22;9145;48.588;9.250;2022-09-02T03:46:20;14.30;99.90
18041;DHT22;9145;48.588;9.250;2022-09-02T03:48:47;14.40;99.90
18041;DHT22;9145;48.588;9.250;2022-09-02T03:51:16;14.40;99.90
18041;DHT22;9145;48.588;9.250;2022-09-02T03:53:43;14.40;99.90
18041;DHT22;9145;48.588;9.250;2022-09-02T03:56:12;14.30;99.90
18041;DHT22;9145;48.588;9.250;2022-09-02T03:58:42;14.30;99.90
18041;DHT22;9145;48.588;9.250;2022-09-02T04:01:12;14.30;99.90
18041;DHT22;9145;48.588;9.250;2022-09-02T04:03:39;14.20;99.90
18041;DHT22;9145;48.588;9.250;2022-09-02T04:06:08;14.30;99.90
18041;DHT22;9145;48.588;9.250;2022-09-02T04:08:37;14.30;99.90
18041;DHT22;9145;48.588;9.250;2022-09-02T04:11:06;14.30;99.90
18041;DHT22;9145;48.588;9.250;2022-09-02T04:13:34;14.30;99.90
18041;DHT22;9145;48.588;9.250;2022-09-02T04:16:07;14.30;99.90
18041;DHT22;9145;48.588;9.250;2022-09-02T04:18:34;14.30;99.90
18041;DHT22;9145;48.588;9.250;2022-09-02T04:21:01;14.30;99.90
18041;DHT22;9145;48.588;9.250;2022-09-02T04:23:28;14.30;99.90
18041;DHT22;9145;48.588;9.250;2022-09-02T04:25:56;14.20;99.90
18041;DHT22;9145;48.588;9.250;2022-09-02T04:28:23;14.20;99.90
18041;DHT22;9145;48.588;9.250;2022-09-02T04:30:50;14.20;99.90
18041;DHT22;9145;48.588;9.250;2022-09-02T04:33:18;14.20;99.90
18041;DHT22;9145;48.588;9.250;2022-09-02T04:35:46;14.20;99.90
18041;DHT22;9145;48.588;9.250;2022-09-02T04:38:15;14.30;99.90
18041;DHT22;9145;48.588;9.250;2022-09-02T04:40:43;14.40;99.90
18041;DHT22;9145;48.588;9.250;2022-09-02T04:43:11;14.30;99.90
18041;DHT22;9145;48.588;9.250;2022-09-02T04:45:41;14.30;99.90
18041;DHT22;9145;48.588;9.250;2022-09-02T04:48:08;14.20;99.90
18041;DHT22;9145;48.588;9.250;2022-09-02T04:50:37;13.90;99.90
18041;DHT22;9145;48.588;9.250;2022-09-02T04:53:05;13.90;99.90
18041;DHT22;9145;48.588;9.250;2022-09-02T04:55:32;13.80;99.90
18041;DHT22;9145;48.588;9.250;2022-09-02T04:57:59;13.80;99.90
18041;DHT22;9145;48.588;9.250;2022-09-02T05:00:26;13.70;99.90
18041;DHT22;9145;48.588;9.250;2022-09-02T05:02:53;13.80;99.90
18041;DHT22;9145;48.588;9.250;2022-09-02T05:05:20;13.80;99.90
18041;DHT22;9145;48.588;9.250;2022-09-02T05:07:49;13.80;99.90
18041;DHT22;9145;48.588;9.250;2022-09-02T05:10:16;13.80;99.90
18041;DHT22;9145;48.588;9.250;2022-09-02T05:12:43;13.90;99.90
18041;DHT22;9145;48.588;9.250;2022-09-02T05:15:10;13.90;99.90
18041;DHT22;9145;48.588;9.250;2022-09-02T05:17:37;14.00;99.90
18041;DHT22;9145;48.588;9.250;2022-09-02T05:20:07;14.10;99.90
18041;DHT22;9145;48.588;9.250;2022-09-02T05:22:34;14.10;99.90
18041;DHT22;9145;48.588;9.250;2022-09-02T05:25:04;14.20;99.90
18041;DHT22;9145;48.588;9.250;2022-09-02T05:27:33;14.20;99.90
18041;DHT22;9145;48.588;9.250;2022-09-02T05:30:00;14.20;99.90
18041;DHT22;9145;48.588;9.250;2022-09-02T05:32:28;14.20;99.90
18041;DHT22;9145;48.588;9.250;2022-09-02T05:34:55;14.20;99.90
18041;DHT22;9145;48.588;9.250;2022-09-02T05:37:23;14.30;99.90
18041;DHT22;9145;48.588;9.250;2022-09-02T05:39:50;14.30;99.90
18041;DHT22;9145;48.588;9.250;2022-09-02T05:42:18;14.50;99.90
18041;DHT22;9145;48.588;9.250;2022-09-02T05:44:46;14.60;99.90
18041;DHT22;9145;48.588;9.250;2022-09-02T05:47:13;14.60;99.90
18041;DHT22;9145;48.588;9.250;2022-09-02T05:49:39;14.70;99.90
18041;DHT22;9145;48.588;9.250;2022-09-02T05:52:06;14.90;99.90
18041;DHT22;9145;48.588;9.250;2022-09-02T05:54:36;14.90;99.90
18041;DHT22;9145;48.588;9.250;2022-09-02T05:57:05;14.90;99.90
18041;DHT22;9145;48.588;9.250;2022-09-02T05:59:35;14.90;99.90
18041;DHT22;9145;48.588;9.250;2022-09-02T06:02:05;14.90;99.90
18041;DHT22;9145;48.588;9.250;2022-09-02T06:04:36;15.00;99.90
18041;DHT22;9145;48.588;9.250;2022-09-02T06:07:03;15.10;99.90
18041;DHT22;9145;48.588;9.250;2022-09-02T06:09:30;15.20;99.90
18041;DHT22;9145;48.588;9.250;2022-09-02T06:11:57;15.30;99.90
18041;DHT22;9145;48.588;9.250;2022-09-02T06:14:24;15.30;99.90
18041;DHT22;9145;48.588;9.250;2022-09-02T06:16:54;15.50;99.90
18041;DHT22;9145;48.588;9.250;2022-09-02T06:19:23;15.50;99.90
18041;DHT22;9145;48.588;9.250;2022-09-02T06:21:51;15.40;99.90
18041;DHT22;9145;48.588;9.250;2022-09-02T06:24:19;15.50;99.90
18041;DHT22;9145;48.588;9.250;2022-09-02T06:26:46;15.60;99.90
18041;DHT22;9145;48.588;9.250;2022-09-02T06:29:13;15.60;99.90
18041;DHT22;9145;48.588;9.250;2022-09-02T06:31:40;15.70;99.90
18041;DHT22;9145;48.588;9.250;2022-09-02T06:34:10;15.70;99.90
18041;DHT22;9145;48.588;9.250;2022-09-02T06:36:39;15.80;99.90
18041;DHT22;9145;48.588;9.250;2022-09-02T06:39:08;15.80;99.90
18041;DHT22;9145;48.588;9.250;2022-09-02T06:41:37;15.90;99.90
18041;DHT22;9145;48.588;9.250;2022-09-02T06:44:06;15.90;99.90
18041;DHT22;9145;48.588;9.250;2022-09-02T06:46:36;16.00;99.90
18041;DHT22;9145;48.588;9.250;2022-09-02T06:49:04;16.00;99.90
18041;DHT22;9145;48.588;9.250;2022-09-02T06:51:34;16.10;99.90
18041;DHT22;9145;48.588;9.250;2022-09-02T06:54:04;16.20;99.90
18041;DHT22;9145;48.588;9.250;2022-09-02T06:56:31;16.20;99.90
18041;DHT22;9145;48.588;9.250;2022-09-02T06:58:59;16.30;99.90
18041;DHT22;9145;48.588;9.250;2022-09-02T07:01:28;16.30;99.90
18041;DHT22;9145;48.588;9.250;2022-09-02T07:03:56;16.40;99.90
18041;DHT22;9145;48.588;9.250;2022-09-02T07:06:43;16.50;99.90
18041;DHT22;9145;48.588;9.250;2022-09-02T07:09:13;16.60;99.90
18041;DHT22;9145;48.588;9.250;2022-09-02T07:11:40;16.50;99.90
18041;DHT22;9145;48.588;9.250;2022-09-02T07:14:07;16.60;99.90
18041;DHT22;9145;48.588;9.250;2022-09-02T07:16:40;16.70;99.90
18041;DHT22;9145;48.588;9.250;2022-09-02T07:19:08;16.80;99.90
18041;DHT22;9145;48.588;9.250;2022-09-02T07:21:35;16.90;99.90
18041;DHT22;9145;48.588;9.250;2022-09-02T07:24:04;16.80;99.90
18041;DHT22;9145;48.588;9.250;2022-09-02T07:26:31;16.90;99.90
18041;DHT22;9145;48.588;9.250;2022-09-02T07:28:57;16.90;99.90
18041;DHT22;9145;48.588;9.250;2022-09-02T07:31:25;17.00;99.90
18041;DHT22;9145;48.588;9.250;2022-09-02T07:33:54;17.10;99.90
18041;DHT22;9145;48.588;9.250;2022-09-02T07:36:23;17.10;99.90
18041;DHT22;9145;48.588;9.250;2022-09-02T07:38:50;17.20;99.90
18041;DHT22;9145;48.588;9.250;2022-09-02T07:41:20;17.30;99.90
18041;DHT22;9145;48.588;9.250;2022-09-02T07:43:47;17.30;99.90
18041;DHT22;9145;48.588;9.250;2022-09-02T07:46:15;17.40;99.90
18041;DHT22;9145;48.588;9.250;2022-09-02T07:48:42;17.50;99.90
18041;DHT22;9145;48.588;9.250;2022-09-02T07:51:10;17.50;99.90
18041;DHT22;9145;48.588;9.250;2022-09-02T07:53:37;17.60;99.90
18041;DHT22;9145;48.588;9.250;2022-09-02T07:56:04;17.70;99.90
18041;DHT22;9145;48.588;9.250;2022-09-02T07:58:32;17.90;99.90
18041;DHT22;9145;48.588;9.250;2022-09-02T08:01:00;18.00;99.90
18041;DHT22;9145;48.588;9.250;2022-09-02T08:03:27;18.10;99.90
18041;DHT22;9145;48.588;9.250;2022-09-02T08:05:55;18.20;99.90
18041;DHT22;9145;48.588;9.250;2022-09-02T08:08:22;18.30;99.90
18041;DHT22;9145;48.588;9.250;2022-09-02T08:10:52;18.40;99.90
18041;DHT22;9145;48.588;9.250;2022-09-02T08:13:19;18.50;99.90
18041;DHT22;9145;48.588;9.250;2022-09-02T08:15:48;18.60;99.90
18041;DHT22;9145;48.588;9.250;2022-09-02T08:18:15;18.70;99.90
18041;DHT22;9145;48.588;9.250;2022-09-02T08:20:42;18.80;99.90
18041;DHT22;9145;48.588;9.250;2022-09-02T08:23:09;18.90;99.90
18041;DHT22;9145;48.588;9.250;2022-09-02T08:25:36;18.80;99.90
18041;DHT22;9145;48.588;9.250;2022-09-02T08:28:03;18.80;99.90
18041;DHT22;9145;48.588;9.250;2022-09-02T08:30:30;18.90;99.90
18041;DHT22;9145;48.588;9.250;2022-09-02T08:32:58;19.00;99.90
18041;DHT22;9145;48.588;9.250;2022-09-02T08:35:25;19.20;99.90
18041;DHT22;9145;48.588;9.250;2022-09-02T08:37:52;19.40;99.90
18041;DHT22;9145;48.588;9.250;2022-09-02T08:40:21;19.50;99.90
18041;DHT22;9145;48.588;9.250;2022-09-02T08:42:51;19.60;99.90
18041;DHT22;9145;48.588;9.250;2022-09-02T08:45:23;19.70;99.90
18041;DHT22;9145;48.588;9.250;2022-09-02T08:48:06;19.70;99.90
18041;DHT22;9145;48.588;9.250;2022-09-02T08:50:36;19.80;99.90
18041;DHT22;9145;48.588;9.250;2022-09-02T08:53:10;19.90;99.90
18041;DHT22;9145;48.588;9.250;2022-09-02T08:55:46;20.10;99.90
18041;DHT22;9145;48.588;9.250;2022-09-02T08:58:18;20.30;99.90
18041;DHT22;9145;48.588;9.250;2022-09-02T09:00:51;20.40;99.90
18041;DHT22;9145;48.588;9.250;2022-09-02T09:03:26;20.60;99.90
18041;DHT22;9145;48.588;9.250;2022-09-02T09:06:00;20.70;99.90
18041;DHT22;9145;48.588;9.250;2022-09-02T09:08:34;20.80;99.90
18041;DHT22;9145;48.588;9.250;2022-09-02T09:11:04;21.00;99.90
18041;DHT22;9145;48.588;9.250;2022-09-02T09:13:44;21.20;99.90
18041;DHT22;9145;48.588;9.250;2022-09-02T09:16:19;21.30;99.90
18041;DHT22;9145;48.588;9.250;2022-09-02T09:18:56;21.40;99.90
18041;DHT22;9145;48.588;9.250;2022-09-02T09:21:25;21.50;99.90
18041;DHT22;9145;48.588;9.250;2022-09-02T09:23:54;21.60;99.90
18041;DHT22;9145;48.588;9.250;2022-09-02T09:26:27;21.70;99.90
18041;DHT22;9145;48.588;9.250;2022-09-02T09:28:54;21.90;99.90
18041;DHT22;9145;48.588;9.250;2022-09-02T09:31:27;22.00;99.90
18041;DHT22;9145;48.588;9.250;2022-09-02T09:33:59;22.10;99.90
18041;DHT22;9145;48.588;9.250;2022-09-02T09:36:50;22.30;99.90
18041;DHT22;9145;48.588;9.250;2022-09-02T09:39:24;22.40;99.90
18041;DHT22;9145;48.588;9.250;2022-09-02T09:41:52;22.40;99.90
18041;DHT22;9145;48.588;9.250;2022-09-02T09:44:41;22.50;99.90
18041;DHT22;9145;48.588;9.250;2022-09-02T09:47:14;22.70;99.90
18041;DHT22;9145;48.588;9.250;2022-09-02T09:49:46;22.80;99.90
18041;DHT22;9145;48.588;9.250;2022-09-02T09:52:21;22.90;99.90
18041;DHT22;9145;48.588;9.250;2022-09-02T09:55:06;23.00;99.90
18041;DHT22;9145;48.588;9.250;2022-09-02T09:57:33;23.10;99.90
18041;DHT22;9145;48.588;9.250;2022-09-02T10:00:00;23.20;99.90
18041;DHT22;9145;48.588;9.250;2022-09-02T10:02:28;23.30;99.90
18041;DHT22;9145;48.588;9.250;2022-09-02T10:05:10;23.30;99.90
18041;DHT22;9145;48.588;9.250;2022-09-02T10:07:42;23.50;99.90
18041;DHT22;9145;48.588;9.250;2022-09-02T10:10:21;23.60;99.90
18041;DHT22;9145;48.588;9.250;2022-09-02T10:12:50;23.70;99.90
18041;DHT22;9145;48.588;9.250;2022-09-02T10:15:23;23.80;99.20
18041;DHT22;9145;48.588;9.250;2022-09-02T10:17:59;23.70;99.50
18041;DHT22;9145;48.588;9.250;2022-09-02T10:20:39;23.80;98.50
18041;DHT22;9145;48.588;9.250;2022-09-02T10:23:23;24.00;98.80
18041;DHT22;9145;48.588;9.250;2022-09-02T10:26:02;24.00;99.60
18041;DHT22;9145;48.588;9.250;2022-09-02T10:28:44;24.20;99.70
18041;DHT22;9145;48.588;9.250;2022-09-02T10:31:18;24.30;98.50
18041;DHT22;9145;48.588;9.250;2022-09-02T10:33:56;24.20;98.90
18041;DHT22;9145;48.588;9.250;2022-09-02T10:36:34;24.10;99.40
18041;DHT22;9145;48.588;9.250;2022-09-02T10:39:11;24.30;99.10
18041;DHT22;9145;48.588;9.250;2022-09-02T10:41:44;24.50;99.90
18041;DHT22;9145;48.588;9.250;2022-09-02T10:44:25;24.70;99.00
18041;DHT22;9145;48.588;9.250;2022-09-02T10:46:58;24.70;98.10
18041;DHT22;9145;48.588;9.250;2022-09-02T10:49:47;24.90;97.90
18041;DHT22;9145;48.588;9.250;2022-09-02T10:52:39;24.90;96.90
18041;DHT22;9145;48.588;9.250;2022-09-02T10:55:15;24.70;97.50
18041;DHT22;9145;48.588;9.250;2022-09-02T10:57:47;24.80;97.90
18041;DHT22;9145;48.588;9.250;2022-09-02T11:00:18;24.90;97.80
18041;DHT22;9145;48.588;9.250;2022-09-02T11:02:48;25.10;98.10
18041;DHT22;9145;48.588;9.250;2022-09-02T11:05:19;25.20;97.90
18041;DHT22;9145;48.588;9.250;2022-09-02T11:07:51;25.30;98.70
18041;DHT22;9145;48.588;9.250;2022-09-02T11:10:23;25.30;98.20
18041;DHT22;9145;48.588;9.250;2022-09-02T11:12:55;25.30;98.20
18041;DHT22;9145;48.588;9.250;2022-09-02T11:15:33;25.50;98.10
18041;DHT22;9145;48.588;9.250;2022-09-02T11:18:08;25.60;98.80
18041;DHT22;9145;48.588;9.250;2022-09-02T11:20:42;25.70;98.20
18041;DHT22;9145;48.588;9.250;2022-09-02T11:23:17;25.80;98.70
18041;DHT22;9145;48.588;9.250;2022-09-02T11:25:48;25.90;98.30
18041;DHT22;9145;48.588;9.250;2022-09-02T11:28:29;25.90;97.90
18041;DHT22;9145;48.588;9.250;2022-09-02T11:31:01;26.10;97.80
18041;DHT22;9145;48.588;9.250;2022-09-02T11:33:40;26.10;96.70
18041;DHT22;9145;48.588;9.250;2022-09-02T11:36:10;26.00;95.10
18041;DHT22;9145;48.588;9.250;2022-09-02T11:38:43;25.90;97.20
18041;DHT22;9145;48.588;9.250;2022-09-02T11:41:25;25.80;97.20
18041;DHT22;9145;48.588;9.250;2022-09-02T11:43:55;26.00;97.10
18041;DHT22;9145;48.588;9.250;2022-09-02T11:46:47;26.20;96.90
18041;DHT22;9145;48.588;9.250;2022-09-02T11:49:39;26.30;97.10
18041;DHT22;9145;48.588;9.250;2022-09-02T11:52:26;26.30;96.40
18041;DHT22;9145;48.588;9.250;2022-09-02T11:55:09;26.20;95.70
18041;DHT22;9145;48.588;9.250;2022-09-02T11:57:41;26.10;98.40
18041;DHT22;9145;48.588;9.250;2022-09-02T12:00:25;26.20;96.10
18041;DHT22;9145;48.588;9.250;2022-09-02T12:03:08;26.20;96.40
18041;DHT22;9145;48.588;9.250;2022-09-02T12:06:04;26.20;96.50
18041;DHT22;9145;48.588;9.250;2022-09-02T12:11:42;26.60;97.80
18041;DHT22;9145;48.588;9.250;2022-09-02T12:14:11;26.80;95.40
18041;DHT22;9145;48.588;9.250;2022-09-02T12:16:59;26.80;93.60
18041;DHT22;9145;48.588;9.250;2022-09-02T12:19:40;26.80;96.30
18041;DHT22;9145;48.588;9.250;2022-09-02T12:22:31;26.80;93.90
18041;DHT22;9145;48.588;9.250;2022-09-02T12:25:04;26.80;94.80
18041;DHT22;9145;48.588;9.250;2022-09-02T12:27:34;26.80;96.30
18041;DHT22;9145;48.588;9.250;2022-09-02T12:30:03;26.90;95.40
18041;DHT22;9145;48.588;9.250;2022-09-02T12:33:10;26.70;93.60
18041;DHT22;9145;48.588;9.250;2022-09-02T12:35:50;26.40;93.50
18041;DHT22;9145;48.588;9.250;2022-09-02T12:38:26;26.50;94.30
18041;DHT22;9145;48.588;9.250;2022-09-02T12:40:59;26.70;96.00
18041;DHT22;9145;48.588;9.250;2022-09-02T12:43:44;27.00;95.00
18041;DHT22;9145;48.588;9.250;2022-09-02T12:46:20;27.30;94.00
18041;DHT22;9145;48.588;9.250;2022-09-02T12:48:58;27.30;93.30
18041;DHT22;9145;48.588;9.250;2022-09-02T12:51:52;27.20;93.30
18041;DHT22;9145;48.588;9.250;2022-09-02T12:54:25;26.80;91.80
18041;DHT22;9145;48.588;9.250;2022-09-02T12:56:52;26.80;92.70
18041;DHT22;9145;48.588;9.250;2022-09-02T12:59:28;26.90;93.70
18041;DHT22;9145;48.588;9.250;2022-09-02T13:02:09;27.10;94.40
18041;DHT22;9145;48.588;9.250;2022-09-02T13:04:45;27.40;94.10
18041;DHT22;9145;48.588;9.250;2022-09-02T13:07:54;27.60;94.40
18041;DHT22;9145;48.588;9.250;2022-09-02T13:16:45;27.90;93.20
18041;DHT22;9145;48.588;9.250;2022-09-02T13:19:34;27.90;91.90
18041;DHT22;9145;48.588;9.250;2022-09-02T13:22:29;28.00;92.50
18041;DHT22;9145;48.588;9.250;2022-09-02T13:28:20;28.50;93.00
18041;DHT22;9145;48.588;9.250;2022-09-02T13:31:12;28.80;93.30
18041;DHT22;9145;48.588;9.250;2022-09-02T13:33:43;28.90;92.60
18041;DHT22;9145;48.588;9.250;2022-09-02T13:36:20;28.80;92.00
18041;DHT22;9145;48.588;9.250;2022-09-02T13:38:48;28.80;92.70
18041;DHT22;9145;48.588;9.250;2022-09-02T13:41:27;29.00;92.40
18041;DHT22;9145;48.588;9.250;2022-09-02T13:44:05;29.00;92.10
18041;DHT22;9145;48.588;9.250;2022-09-02T13:46:41;29.30;91.70
18041;DHT22;9145;48.588;9.250;2022-09-02T13:49:20;29.40;90.60
18041;DHT22;9145;48.588;9.250;2022-09-02T13:51:48;29.50;91.30
18041;DHT22;9145;48.588;9.250;2022-09-02T13:54:27;29.60;90.50
18041;DHT22;9145;48.588;9.250;2022-09-02T13:56:56;29.70;88.50
18041;DHT22;9145;48.588;9.250;2022-09-02T13:59:37;29.60;90.20
18041;DHT22;9145;48.588;9.250;2022-09-02T14:02:24;29.50;88.90
18041;DHT22;9145;48.588;9.250;2022-09-02T14:04:55;29.70;90.20
18041;DHT22;9145;48.588;9.250;2022-09-02T14:07:27;29.60;90.70
18041;DHT22;9145;48.588;9.250;2022-09-02T14:09:57;29.90;88.90
18041;DHT22;9145;48.588;9.250;2022-09-02T14:12:26;30.10;87.70
18041;DHT22;9145;48.588;9.250;2022-09-02T14:14:55;30.40;88.90
18041;DHT22;9145;48.588;9.250;2022-09-02T14:17:24;30.40;86.50
18041;DHT22;9145;48.588;9.250;2022-09-02T14:20:06;30.50;87.50
18041;DHT22;9145;48.588;9.250;2022-09-02T14:22:34;30.60;86.90
18041;DHT22;9145;48.588;9.250;2022-09-02T14:25:07;30.70;87.40
18041;DHT22;9145;48.588;9.250;2022-09-02T14:27:34;31.10;84.00
18041;DHT22;9145;48.588;9.250;2022-09-02T14:30:03;31.20;85.90
18041;DHT22;9145;48.588;9.250;2022-09-02T14:32:34;31.40;82.90
18041;DHT22;9145;48.588;9.250;2022-09-02T14:35:17;31.40;84.80
18041;DHT22;9145;48.588;9.250;2022-09-02T14:37:51;31.40;82.80
18041;DHT22;9145;48.588;9.250;2022-09-02T14:40:31;31.60;84.60
18041;DHT22;9145;48.588;9.250;2022-09-02T14:42:59;31.80;82.80
18041;DHT22;9145;48.588;9.250;2022-09-02T14:45:28;31.80;83.20
18041;DHT22;9145;48.588;9.250;2022-09-02T14:47:57;32.20;81.50
18041;DHT22;9145;48.588;9.250;2022-09-02T14:50:30;32.10;80.20
18041;DHT22;9145;48.588;9.250;2022-09-02T14:53:03;32.00;80.80
18041;DHT22;9145;48.588;9.250;2022-09-02T14:55:48;32.00;79.90
18041;DHT22;9145;48.588;9.250;2022-09-02T14:58:18;32.10;80.40
18041;DHT22;9145;48.588;9.250;2022-09-02T15:00:46;32.20;79.40
18041;DHT22;9145;48.588;9.250;2022-09-02T15:03:17;32.30;78.50
18041;DHT22;9145;48.588;9.250;2022-09-02T15:05:46;32.30;81.00
18041;DHT22;9145;48.588;9.250;2022-09-02T15:08:13;32.60;79.20
18041;DHT22;9145;48.588;9.250;2022-09-02T15:10:41;32.50;79.30
18041;DHT22;9145;48.588;9.250;2022-09-02T15:13:10;32.60;77.40
18041;DHT22;9145;48.588;9.250;2022-09-02T15:15:38;32.70;79.30
18041;DHT22;9145;48.588;9.250;2022-09-02T15:18:05;32.60;78.70
18041;DHT22;9145;48.588;9.250;2022-09-02T15:20:32;32.70;77.40
18041;DHT22;9145;48.588;9.250;2022-09-02T15:23:00;32.60;75.70
18041;DHT22;9145;48.588;9.250;2022-09-02T15:25:27;32.40;76.40
18041;DHT22;9145;48.588;9.250;2022-09-02T15:27:54;32.40;77.40
18041;DHT22;9145;48.588;9.250;2022-09-02T15:30:21;32.40;76.40
18041;DHT22;9145;48.588;9.250;2022-09-02T15:32:48;32.40;77.80
18041;DHT22;9145;48.588;9.250;2022-09-02T15:35:15;32.30;76.40
18041;DHT22;9145;48.588;9.250;2022-09-02T15:37:42;32.40;76.30
18041;DHT22;9145;48.588;9.250;2022-09-02T15:40:11;32.30;76.40
18041;DHT22;9145;48.588;9.250;2022-09-02T15:42:38;31.90;76.10
18041;DHT22;9145;48.588;9.250;2022-09-02T15:45:06;31.70;77.80
18041;DHT22;9145;48.588;9.250;2022-09-02T15:47:35;31.50;77.50
18041;DHT22;9145;48.588;9.250;2022-09-02T15:50:03;31.20;77.40
18041;DHT22;9145;48.588;9.250;2022-09-02T15:52:30;31.00;77.50
18041;DHT22;9145;48.588;9.250;2022-09-02T15:54:56;31.00;80.70
18041;DHT22;9145;48.588;9.250;2022-09-02T15:57:25;31.30;80.10
18041;DHT22;9145;48.588;9.250;2022-09-02T15:59:52;31.40;78.70
18041;DHT22;9145;48.588;9.250;2022-09-02T16:02:18;31.50;79.00
18041;DHT22;9145;48.588;9.250;2022-09-02T16:04:45;31.50;78.00
18041;DHT22;9145;48.588;9.250;2022-09-02T16:07:12;31.30;79.00
18041;DHT22;9145;48.588;9.250;2022-09-02T16:09:39;30.80;80.70
18041;DHT22;9145;48.588;9.250;2022-09-02T16:12:07;30.40;80.20
18041;DHT22;9145;48.588;9.250;2022-09-02T16:14:35;30.00;79.80
18041;DHT22;9145;48.588;9.250;2022-09-02T16:17:02;29.60;81.40
18041;DHT22;9145;48.588;9.250;2022-09-02T16:19:29;29.20;83.00
18041;DHT22;9145;48.588;9.250;2022-09-02T16:21:56;28.90;82.30